Terminal Aerodrome Forecast
Issued by NWS Wichita, KS

Home | Current Version | Previous Version | Graphics & Text | Print | Product List | Glossary On
Versions: 1 2 3 4 5 6 7 8 9 10 11 12 13 14 15 16 17 18 19 20
134
FTUS43 KICT 172338
TAFICT
TAF
KICT 172338Z 1800/1824 VRB05KT P6SM SKC
     FM180100 21004KT P6SM FEW250
     FM181200 17005KT P6SM -RA OVC080
     FM181700 19010KT P6SM BKN070
     FM182300 17010KT P6SM SCT070=

USA.gov is the U.S. government's official web portal to all federal, state and local government web resources and services.